Beaver County Airport
KBVI : now visible

Airfield :











YOU CAN JOIN US ON...

 
LOGIN :

Register | Disclaimer

   EN    FR    IT 

 









Legend :    VFR   Marginal VFR   IFR   Intensive IFR   Very Intensive IFR
Visi :
Ceiling :
>= 8 km
>= 3000ft
5 to 8 km
1000 to 3000 ft
1500m to 5 km
500 to 1000 ft
800 to 1500m
200 to 500 ft
< 800m
< 200 ft
Symbols :   Thunderstorms  Fog  Heavy snow  Heavy precipitations  Wind > 20 kt






- Airport Elevation : 1253 ft


KBVI - Beaver County

CURRENT METAR :
  • 170615Z AUTO 34010G14KT 3/4SM SN OVC007 M01/M03 A2929 RMK AO2 T10111029

EXPIRED METARs :
  • 170555Z AUTO 33008KT 1 3/4SM -SN BKN009 OVC015 M01/M03 A2931 RMK AO2 T10151035
  • 170535Z AUTO 33006KT 1 1/2SM -SN SCT007 OVC015 M02/M04 A2934 RMK AO2 T10211041
  • 170515Z AUTO 34005KT 2SM -SN SCT007 OVC015 M02/M04 A2936 RMK AO2 T10221044
  • 170455Z AUTO 35008KT 2 1/2SM -SN BKN015 OVC023 M02/M05 A2937 RMK AO2 VIS 2V4 T10251046
  • 170435Z AUTO 34008KT 5SM -SN OVC015 M02/M04 A2940 RMK AO2 T10221045
  • 170415Z AUTO 36006KT 10SM BKN012 OVC019 M02/M04 A2944 RMK AO2 T10201041
  • 170355Z AUTO 01006KT 1 1/4SM -SN BKN008 OVC017 M02/M04 A2946 RMK AO2 T10211043
  • 170335Z AUTO 02004KT 3SM -SN SCT010 OVC023 M02/M04 A2949 RMK AO2 T10221045

TAF KBVI
Valid from the 17 at 06:00 until the 18 at 06:00 UTC


170526Z 1706/1806 35008KT 2SM -SN BKN015
TEMPO 1708/1712 1/2SM SN OVC004
FM171200 31013G27KT 1 1/2SM -SN OVC010
FM171700 29015G29KT 2SM -SHSN OVC015
FM180000 28015G22KT P6SM OVC015
KZOB FIR / North America



MET'MAP, your aeronautical weather chart ! - Copyright ORBIFLY December 2007 - Disclaimer

ORBIFLY MET'MAP TEAM :

Programming & Development : Alexandra Zaïnal
Concept & original design : Baudouin d'Aumeries
Assistance for programming : Marc-Olivier Méhu
Technical & hardware support : Manuel Goepfert

Contact : metmap@orbifly.com




SOURCES & CREDITS :

   NOAA       Earth
Advisory